Terminal Aerodrome Forecast
Issued by NWS Omaha/Valley, NE

Home | Current Version | Previous Version | Text Only | Print | Product List | Glossary Off
Versions: 1 2 3 4 5 6 7 8 9 10 11 12 13 14 15 16 17 18 19 20 21 22 23 24

000
FTUS43 KOAX 140104 AAA
TAFOFK
TAF AMD
KOFK 140104Z 1401/1424 16010KT P6SM OVC035
     FM140400 16008KT 4SM -SN OVC025
      TEMPO 1405/1408 1SM -SN OVC007
     FM140800 18009KT 6SM -SN OVC025
      TEMPO 1409/1410 2SM -SN OVC012
     FM141100 19008KT P6SM OVC030
     FM141300 20008KT P6SM BKN015=

USA.gov is the U.S. government's official web portal to all federal, state and local government web resources and services.